Surface/Precipitation History
03/18/2019 21:42  to  3/19/2019 21:42
Change End Date:
Date/Time
(MDT)
Sf
Temp Chem Water Layer Surface Precipitation
Sfc Pvt Sub Frz Factor Pct Dpth DpthThk IcePct Cond Salin FI Type Intens Accum Rate
03/19/2019 21:41 Ice Watch 23.9F - - - 5 - - - - 0 mhos 24 - None None - -
03/19/2019 21:37 Ice Watch 25.0F - - - 5 - - - - 0 mhos 22 - None None - -
03/19/2019 21:27 Ice Watch 22.6F - - - 5 - - - - 0 mhos 22 - None None - -
03/19/2019 21:26 Ice Watch 22.3F - - - 5 - - - - 0 mhos 23 - None None - -
03/19/2019 21:17 Ice Watch 20.8F - - - 5 - - - - 0 mhos 24 - None None - -
03/19/2019 21:11 Ice Watch 21.2F - - - 5 - - - - 0 mhos 22 - None None - -
03/19/2019 21:07 Ice Watch 21.9F - - - 5 - - - - 0 mhos 20 - None None - -
03/19/2019 20:57 Ice Watch 23.0F - - - 5 - - - - 0 mhos 17 - None None - -
03/19/2019 20:56 Ice Watch 25.0F - - - 5 - - - - 0 mhos 14 - None None - -
03/19/2019 20:47 Ice Watch 19.8F - - - 5 - - - - 0 mhos 19 - None None - -
03/19/2019 20:37 Ice Watch 23.9F - - - 5 - - - - 0 mhos 12 - None None - -
03/19/2019 20:27 Ice Watch 23.9F - - - 5 - - - - 0 mhos 10 - None None - -
03/19/2019 20:26 Ice Watch 21.0F - - - 5 - - - - 0 mhos 13 - None None - -
03/19/2019 20:17 Ice Watch 28.4F - - - 5 - - - - 0 mhos 6 - None None - -
03/19/2019 20:11 Ice Watch 29.7F - - - 5 - - - - 0 mhos 5 - None None - -
Date/Time
(MDT)
Sf
Temp Chem Water Layer Surface Precipitation
Sfc Pvt Sub Frz Factor Pct Dpth DpthThk IcePct Cond Salin FI Type Intens Accum Rate
03/19/2019 20:07 Ice Watch 28.8F - - - 5 - - - - 0 mhos 5 - None None - -
03/19/2019 19:57 Trace Moisture 32.2F - - - 5 - - - - 0 mhos 4 - None None - -
03/19/2019 19:56 Trace Moisture 32.2F - - - 5 - - - - 0 mhos 4 - None None - -
03/19/2019 19:47 Ice Watch 28.6F - - - 5 - - - - 0 mhos 4 - None None - -
03/19/2019 19:41 Trace Moisture 33.1F - - - 5 - - - - 0 mhos 3 - None None - -
03/19/2019 19:37 Trace Moisture 33.4F - - - 5 - - - - 0 mhos 3 - None None - -
03/19/2019 19:27 Trace Moisture 33.1F - - - 5 - - - - 0 mhos 2 - None None - -
03/19/2019 19:26 Trace Moisture 33.1F - - - 5 - - - - 0 mhos 2 - None None - -
03/19/2019 19:16 Trace Moisture 32.5F - - - 5 - - - - 0 mhos 1 - None None - -
03/19/2019 19:11 Trace Moisture 34.2F - - - 5 - - - - 0 mhos 1 - None None - -
03/19/2019 19:06 Trace Moisture 35.4F - - - 5 - - - - 0 mhos 1 - None None - -
03/19/2019 18:57 Trace Moisture 38.3F - - - 5 - - - - 0 mhos 1 - None None - -
03/19/2019 18:56 Trace Moisture 38.7F - - - 5 - - - - 0 mhos 1 - None None - -
03/19/2019 18:46 Trace Moisture 38.8F - - - 5 - - - - 0 mhos 1 - None None - -
03/19/2019 18:41 Trace Moisture 40.6F - - - 5 - - - - 0 mhos 1 - None None - -
Date/Time
(MDT)
Sf
Temp Chem Water Layer Surface Precipitation
Sfc Pvt Sub Frz Factor Pct Dpth DpthThk IcePct Cond Salin FI Type Intens Accum Rate
03/19/2019 18:36 Trace Moisture 41.5F - - - 5 - - - - 0 mhos 0 - None None - -
03/19/2019 18:27 Dry 41.5F - - - - - - - - 0 mhos 0 - None None - -
03/19/2019 18:26 Dry 41.5F - - - - - - - - 0 mhos 0 - None None - -
03/19/2019 18:16 Dry 45.7F - - - - - - - - 0 mhos 0 - None None - -
03/19/2019 18:11 Dry 46.8F - - - - - - - - 0 mhos 0 - None None - -
03/19/2019 18:06 Dry 46.2F - - - - - - - - 0 mhos 0 - None None - -
03/19/2019 17:57 Dry 48.2F - - - - - - - - 0 mhos 0 - None None - -
03/19/2019 17:56 Dry 48.4F - - - - - - - - 0 mhos 0 - None None - -
03/19/2019 17:46 Dry 48.7F - - - - - - - - 0 mhos 0 - None None - -
03/19/2019 17:42 Dry 48.4F - - - - - - - - 0 mhos 0 - None None - -
03/19/2019 17:36 Dry 47.5F - - - - - - - - 0 mhos 0 - None None - -
03/19/2019 17:27 Dry 48.7F - - - - - - - - 0 mhos 0 - None None - -
03/19/2019 17:26 Dry 48.0F - - - - - - - - 0 mhos 0 - None None - -
03/19/2019 17:16 Dry 50.0F - - - - - - - - 0 mhos 0 - None None - -
03/19/2019 17:11 Dry 51.8F - - - - - - - - 0 mhos 0 - None None - -
Date/Time
(MDT)
Sf
Temp Chem Water Layer Surface Precipitation
Sfc Pvt Sub Frz Factor Pct Dpth DpthThk IcePct Cond Salin FI Type Intens Accum Rate
03/19/2019 17:06 Dry 53.4F - - - - - - - - 0 mhos 0 - None None - -
03/19/2019 16:57 Dry 55.9F - - - - - - - - 0 mhos 0 - None None - -
03/19/2019 16:56 Dry 55.4F - - - - - - - - 0 mhos 0 - None None - -
03/19/2019 16:46 Dry 58.6F - - - - - - - - 0 mhos 0 - None None - -
03/19/2019 16:42 Dry 60.1F - - - - - - - - 0 mhos 0 - None None - -
03/19/2019 16:36 Dry 62.4F - - - - - - - - 0 mhos 0 - None None - -
03/19/2019 16:27 Dry 61.3F - - - - - - - - 0 mhos 0 - None None - -
03/19/2019 16:26 Dry 61.0F - - - - - - - - 0 mhos 0 - None None - -
03/19/2019 16:16 Dry 61.2F - - - - - - - - 0 mhos 0 - None None - -
03/19/2019 16:11 Dry 59.5F - - - - - - - - 0 mhos 0 - None None - -
03/19/2019 16:05 Dry 60.8F - - - - - - - - 0 mhos 21 - None None - -
03/19/2019 15:56 Dry 61.2F - - - - - - - - 0 mhos 0 - None None - -
03/19/2019 15:55 Dry 63.1F - - - - - - - - 0 mhos 0 - None None - -
03/19/2019 15:45 Dry 60.6F - - - - - - - - 0 mhos 0 - None None - -
03/19/2019 15:41 Dry 62.1F - - - - - - - - 0 mhos 0 - None None - -
Date/Time
(MDT)
Sf
Temp Chem Water Layer Surface Precipitation
Sfc Pvt Sub Frz Factor Pct Dpth DpthThk IcePct Cond Salin FI Type Intens Accum Rate
03/19/2019 15:35 Dry 62.2F - - - - - - - - 0 mhos 0 - None None - -
03/19/2019 15:27 Dry 61.0F - - - - - - - - 0 mhos 0 - None None - -
03/19/2019 15:25 Dry 60.4F - - - - - - - - 0 mhos 0 - None None - -
03/19/2019 15:15 Dry 46.0F - - - - - - - - 0 mhos 0 - None None - -
03/19/2019 15:11 Dry 10.8F - - - - - - - - 0 mhos 0 - None None - -
03/19/2019 15:05 Dry 50.9F - - - - - - - - 0 mhos 0 - None None - -
03/19/2019 14:56 Dry 47.5F - - - - - - - - 0 mhos 0 - None None - -
03/19/2019 14:55 Dry 50.7F - - - - - - - - 0 mhos 0 - None None - -
03/19/2019 14:45 Dry 51.8F - - - - - - - - 0 mhos 0 - None None - -
03/19/2019 14:42 Dry 49.8F - - - - - - - - 0 mhos 0 - None None - -
03/19/2019 14:35 Dry -10.5F - - - - - - - - 0 mhos 0 - None None - -
03/19/2019 14:26 Dry -54.9F - - - - - - - - 0 mhos 614 - None None - -
03/19/2019 14:25 Dry -57.1F - - - - - - - - 0 mhos 614 - None None - -
03/19/2019 14:15 Dry 43.2F - - - - - - - - 0 mhos 0 - None None - -
03/19/2019 14:12 Dry 54.5F - - - - - - - - 0 mhos 0 - None None - -
Date/Time
(MDT)
Sf
Temp Chem Water Layer Surface Precipitation
Sfc Pvt Sub Frz Factor Pct Dpth DpthThk IcePct Cond Salin FI Type Intens Accum Rate
03/19/2019 14:05 Error 49.8F - - - - - - - - 0 mhos 0 - None None - -
03/19/2019 13:56 Dry 51.3F - - - - - - - - 0 mhos 0 - None None - -
03/19/2019 13:55 Dry 53.6F - - - - - - - - 0 mhos 0 - None None - -
03/19/2019 13:45 Dry 58.1F - - - - - - - - 0 mhos 0 - None None - -
03/19/2019 13:42 Dry 55.2F - - - - - - - - 0 mhos 0 - None None - -
03/19/2019 13:35 Dry 55.8F - - - - - - - - 0 mhos 0 - None None - -
03/19/2019 13:26 Dry 57.7F - - - - - - - - 0 mhos 0 - None None - -
03/19/2019 13:25 Dry 57.6F - - - - - - - - 0 mhos 0 - None None - -
03/19/2019 13:15 Dry 58.3F - - - - - - - - 0 mhos 0 - None None - -
03/19/2019 13:12 Dry 57.4F - - - - - - - - 0 mhos 0 - None None - -
03/19/2019 13:04 Dry 54.7F - - - - - - - - 0 mhos 0 - None None - -
03/19/2019 12:56 Dry 51.8F - - - - - - - - 0 mhos 0 - None None - -
03/19/2019 12:54 Dry 55.0F - - - - - - - - 0 mhos 0 - None None - -
03/19/2019 12:44 Dry 42.4F - - - - - - - - 0 mhos 0 - None None - -
03/19/2019 12:41 Dry 43.7F - - - - - - - - 0 mhos 0 - None None - -
Date/Time
(MDT)
Sf
Temp Chem Water Layer Surface Precipitation
Sfc Pvt Sub Frz Factor Pct Dpth DpthThk IcePct Cond Salin FI Type Intens Accum Rate
03/19/2019 12:34 Dry 39.2F - - - - - - - - 0 mhos 0 - None None - -
03/19/2019 12:26 Dry 45.7F - - - - - - - - 0 mhos 0 - None None - -
03/19/2019 12:24 Dry 42.1F - - - - - - - - 0 mhos 0 - None None - -
03/19/2019 12:14 Dry 43.5F - - - - - - - - 0 mhos 0 - None None - -
03/19/2019 12:11 Dry 48.6F - - - - - - - - 0 mhos 0 - None None - -
03/19/2019 12:04 Dry 45.3F - - - - - - - - 0 mhos 1 - None None - -
03/19/2019 11:56 Dry 46.8F - - - - - - - - 0 mhos 2 - None None - -
03/19/2019 11:54 Dry 44.8F - - - - - - - - 0 mhos 2 - None None - -
03/19/2019 11:44 Dry 40.6F - - - - - - - - 0 mhos 3 - None None - -
03/19/2019 11:42 Dry 41.9F - - - - - - - - 0 mhos 4 - None None - -
03/19/2019 11:34 Dry 39.7F - - - - - - - - 0 mhos 6 - None None - -
03/19/2019 11:27 Dry 39.9F - - - - - - - - 0 mhos 11 - None None - -
03/19/2019 11:24 Dry 39.2F - - - - - - - - 0 mhos 12 - None None - -
03/19/2019 11:14 Dry 30.2F - - - - - - - - 0 mhos 22 - None None - -
03/19/2019 11:12 Dry 28.0F - - - - - - - - 0 mhos 29 - None None - -
Date/Time
(MDT)
Sf
Temp Chem Water Layer Surface Precipitation
Sfc Pvt Sub Frz Factor Pct Dpth DpthThk IcePct Cond Salin FI Type Intens Accum Rate
03/19/2019 11:04 Dry 20.7F - - - - - - - - 0 mhos 69 - None None - -
03/19/2019 10:56 Ice Watch 23.0F - - - 5 - - - - 0 mhos 72 - None None - -
03/19/2019 10:54 Ice Watch 22.5F - - - 5 - - - - 0 mhos 82 - None None - -
03/19/2019 10:44 Ice Watch 23.7F - - - 5 - - - - 0 mhos 93 - None None - -
03/19/2019 10:42 Ice Watch 22.1F - - - 5 - - - - 0 mhos 111 - None None - -
03/19/2019 10:34 Ice Watch 17.2F - - - 5 - - - - 1 mhos 174 - None None - -
03/19/2019 10:27 Frost 10.9F - - - - - - - - 0 mhos 282 - None None - -
03/19/2019 10:24 Frost 11.8F - - - - - - - - 0 mhos 259 - None None - -
03/19/2019 10:13 Frost 12.6F - - - - - - - - 0 mhos 243 - None None - -
03/19/2019 10:12 Frost 10.6F - - - - - - - - 0 mhos 281 - None None - -
03/19/2019 10:03 Ice Watch 14.7F - - - 5 - - - - 0 mhos 199 - None None - -
03/19/2019 09:57 Frost 10.6F - - - - - - - - 0 mhos 283 - None None - -
03/19/2019 09:53 Frost 11.5F - - - - - - - - 0 mhos 258 - None None - -
03/19/2019 09:43 Frost 10.6F - - - - - - - - 0 mhos 283 - None None - -
03/19/2019 09:42 Frost 10.9F - - - - - - - - 0 mhos 271 - None None - -
Date/Time
(MDT)
Sf
Temp Chem Water Layer Surface Precipitation
Sfc Pvt Sub Frz Factor Pct Dpth DpthThk IcePct Cond Salin FI Type Intens Accum Rate
03/19/2019 09:33 Frost 13.3F - - - - - - - - 0 mhos 223 - None None - -
03/19/2019 09:27 Frost 13.1F - - - - - - - - 0 mhos 227 - None None - -
03/19/2019 09:23 Frost 12.0F - - - - - - - - 0 mhos 248 - None None - -
03/19/2019 09:13 Ice Watch 14.2F - - - 5 - - - - 0 mhos 209 - None None - -
03/19/2019 09:12 Ice Watch 14.5F - - - 5 - - - - 0 mhos 201 - None None - -
03/19/2019 09:03 Ice Watch 12.7F - - - 5 - - - - 0 mhos 234 - None None - -
03/19/2019 08:57 Ice Watch 12.0F - - - 5 - - - - 0 mhos 250 - None None - -
03/19/2019 08:53 Ice Watch 13.5F - - - 5 - - - - 0 mhos 221 - None None - -
03/19/2019 08:43 Ice Watch 12.0F - - - 5 - - - - 0 mhos 251 - None None - -
03/19/2019 08:41 Ice Watch 12.6F - - - 5 - - - - 0 mhos 237 - None None - -
03/19/2019 08:33 Ice Watch 13.5F - - - 5 - - - - 0 mhos 221 - None None - -
03/19/2019 08:26 Ice Watch 12.6F - - - 5 - - - - 0 mhos 238 - None None - -
03/19/2019 08:23 Ice Watch 11.5F - - - 5 - - - - 0 mhos 263 - None None - -
03/19/2019 08:13 Ice Watch 10.8F - - - 5 - - - - 0 mhos 270 - None None - -
03/19/2019 08:11 Ice Watch 13.1F - - - 5 - - - - 0 mhos 223 - None None - -
Date/Time
(MDT)
Sf
Temp Chem Water Layer Surface Precipitation
Sfc Pvt Sub Frz Factor Pct Dpth DpthThk IcePct Cond Salin FI Type Intens Accum Rate
03/19/2019 08:03 Ice Watch 13.3F - - - 5 - - - - 0 mhos 218 - None None - -
03/19/2019 07:56 Ice Watch 14.2F - - - 5 - - - - 0 mhos 199 - None None - -
03/19/2019 07:53 Ice Watch 14.5F - - - 5 - - - - 0 mhos 194 - None None - -
03/19/2019 07:43 Ice Watch 13.5F - - - 5 - - - - 0 mhos 209 - None None - -
03/19/2019 07:41 Ice Watch 14.2F - - - 5 - - - - 0 mhos 195 - None None - -
03/19/2019 07:33 Ice Watch 13.5F - - - 5 - - - - 0 mhos 201 - None None - -
03/19/2019 07:26 Ice Watch 12.9F - - - 5 - - - - 0 mhos 210 - None None - -
03/19/2019 07:23 Ice Watch 13.5F - - - 5 - - - - 0 mhos 201 - None None - -
03/19/2019 07:13 Ice Watch 12.4F - - - 5 - - - - 0 mhos 214 - None None - -
03/19/2019 07:11 Ice Watch 14.5F - - - 5 - - - - 0 mhos 179 - None None - -
03/19/2019 07:03 Ice Watch 13.1F - - - 5 - - - - 0 mhos 196 - None None - -
03/19/2019 06:56 Frost 9.5F - - - - - - - - 0 mhos 258 - None None - -
03/19/2019 06:53 Frost 8.6F - - - - - - - - 0 mhos 280 - None None - -
03/19/2019 06:43 Ice Watch 12.7F - - - 5 - - - - 0 mhos 192 - None None - -
03/19/2019 06:41 Ice Watch 13.8F - - - 5 - - - - 0 mhos 175 - None None - -
Date/Time
(MDT)
Sf
Temp Chem Water Layer Surface Precipitation
Sfc Pvt Sub Frz Factor Pct Dpth DpthThk IcePct Cond Salin FI Type Intens Accum Rate
03/19/2019 06:32 Ice Watch 13.6F - - - 5 - - - - 0 mhos 174 - None None - -
03/19/2019 06:26 Ice Watch 13.5F - - - 5 - - - - 0 mhos 176 - None None - -
03/19/2019 06:22 Ice Watch 13.5F - - - 5 - - - - 0 mhos 172 - None None - -
03/19/2019 06:12 Ice Watch 11.7F - - - 5 - - - - 0 mhos 196 - None None - -
03/19/2019 06:11 Frost 8.8F - - - - - - - - 0 mhos 246 - None None - -
03/19/2019 06:02 Ice Watch 14.7F - - - 5 - - - - 0 mhos 147 - None None - -
03/19/2019 05:56 Ice Watch 14.2F - - - 5 - - - - 0 mhos 153 - None None - -
03/19/2019 05:52 Ice Watch 14.5F - - - 5 - - - - 0 mhos 149 - None None - -
03/19/2019 05:42 Ice Watch 12.6F - - - 5 - - - - 0 mhos 174 - None None - -
03/19/2019 05:41 Ice Watch 11.5F - - - 5 - - - - 0 mhos 193 - None None - -
03/19/2019 05:32 Ice Watch 11.8F - - - 5 - - - - 0 mhos 186 - None None - -
03/19/2019 05:26 Frost 11.1F - - - - - - - - 0 mhos 196 - None None - -
03/19/2019 05:22 Ice Watch 14.5F - - - 5 - - - - 0 mhos 137 - None None - -
03/19/2019 05:12 Ice Watch 11.7F - - - 5 - - - - 0 mhos 184 - None None - -
03/19/2019 05:11 Ice Watch 13.5F - - - 5 - - - - 0 mhos 159 - None None - -
Date/Time
(MDT)
Sf
Temp Chem Water Layer Surface Precipitation
Sfc Pvt Sub Frz Factor Pct Dpth DpthThk IcePct Cond Salin FI Type Intens Accum Rate
03/19/2019 05:02 Ice Watch 15.6F - - - 5 - - - - 0 mhos 133 - None None - -
03/19/2019 04:56 Ice Watch 14.4F - - - 5 - - - - 0 mhos 147 - None None - -
03/19/2019 04:52 Ice Watch 14.5F - - - 5 - - - - 0 mhos 142 - None None - -
03/19/2019 04:42 Ice Watch 14.4F - - - 5 - - - - 0 mhos 142 - None None - -
03/19/2019 04:41 Ice Watch 14.2F - - - 5 - - - - 0 mhos 143 - None None - -
03/19/2019 04:32 Ice Watch 16.0F - - - 5 - - - - 0 mhos 121 - None None - -
03/19/2019 04:26 Ice Watch 15.6F - - - 5 - - - - 0 mhos 125 - None None - -
03/19/2019 04:22 Ice Watch 14.9F - - - 5 - - - - 0 mhos 131 - None None - -
03/19/2019 04:12 Ice Watch 16.2F - - - 5 - - - - 0 mhos 118 - None None - -
03/19/2019 04:11 Ice Watch 16.3F - - - 5 - - - - 0 mhos 116 - None None - -
03/19/2019 04:02 Ice Watch 15.8F - - - 5 - - - - 0 mhos 120 - None None - -
03/19/2019 03:56 Ice Watch 14.0F - - - 5 - - - - 0 mhos 140 - None None - -
03/19/2019 03:52 Ice Watch 16.5F - - - 5 - - - - 0 mhos 113 - None None - -
03/19/2019 03:42 Ice Watch 16.0F - - - 5 - - - - 0 mhos 118 - None None - -
03/19/2019 03:41 Ice Watch 16.0F - - - 5 - - - - 0 mhos 118 - None None - -
Date/Time
(MDT)
Sf
Temp Chem Water Layer Surface Precipitation
Sfc Pvt Sub Frz Factor Pct Dpth DpthThk IcePct Cond Salin FI Type Intens Accum Rate
03/19/2019 03:32 Ice Watch 17.1F - - - 5 - - - - 0 mhos 107 - None None - -
03/19/2019 03:26 Ice Watch 16.7F - - - 5 - - - - 0 mhos 110 - None None - -
03/19/2019 03:22 Ice Watch 16.3F - - - 5 - - - - 0 mhos 114 - None None - -
03/19/2019 03:11 Ice Watch 16.5F - - - 5 - - - - 0 mhos 109 - None None - -
03/19/2019 03:11 Ice Watch 16.5F - - - 5 - - - - 0 mhos 109 - None None - -
03/19/2019 03:01 Ice Watch 16.5F - - - 5 - - - - 0 mhos 107 - None None - -
03/19/2019 02:56 Ice Watch 18.1F - - - 5 - - - - 0 mhos 94 - None None - -
03/19/2019 02:51 Ice Watch 16.3F - - - 5 - - - - 0 mhos 109 - None None - -
03/19/2019 02:41 Ice Watch 16.9F - - - 5 - - - - 0 mhos 102 - None None - -
03/19/2019 02:41 Ice Watch 16.9F - - - 5 - - - - 0 mhos 102 - None None - -
03/19/2019 02:31 Ice Watch 18.1F - - - 5 - - - - 0 mhos 90 - None None - -
03/19/2019 02:26 Ice Watch 18.3F - - - 5 - - - - 0 mhos 87 - None None - -
03/19/2019 02:21 Ice Watch 18.0F - - - 5 - - - - 0 mhos 89 - None None - -
03/19/2019 02:11 Ice Watch 18.9F - - - 5 - - - - 0 mhos 80 - None None - -
03/19/2019 02:11 Ice Watch 18.9F - - - 5 - - - - 0 mhos 80 - None None - -
Date/Time
(MDT)
Sf
Temp Chem Water Layer Surface Precipitation
Sfc Pvt Sub Frz Factor Pct Dpth DpthThk IcePct Cond Salin FI Type Intens Accum Rate
03/19/2019 02:01 Ice Watch 19.0F - - - 5 - - - - 0 mhos 78 - None None - -
03/19/2019 01:56 Ice Watch 19.6F - - - 5 - - - - 0 mhos 74 - None None - -
03/19/2019 01:51 Ice Watch 18.5F - - - 5 - - - - 0 mhos 80 - None None - -
03/19/2019 01:41 Ice Watch 16.5F - - - 5 - - - - 0 mhos 90 - None None - -
03/19/2019 01:41 Ice Watch 16.5F - - - 5 - - - - 0 mhos 90 - None None - -
03/19/2019 01:31 Ice Watch 17.1F - - - 5 - - - - 0 mhos 83 - None None - -
03/19/2019 01:26 Ice Watch 18.3F - - - 5 - - - - 0 mhos 74 - None None - -
03/19/2019 01:21 Ice Watch 20.3F - - - 5 - - - - 0 mhos 62 - None None - -
03/19/2019 01:11 Ice Watch 20.1F - - - 5 - - - - 0 mhos 61 - None None - -
03/19/2019 01:11 Ice Watch 20.1F - - - 5 - - - - 0 mhos 61 - None None - -
03/19/2019 01:01 Ice Watch 17.6F - - - 5 - - - - 0 mhos 72 - None None - -
03/19/2019 00:56 Ice Watch 16.0F - - - 5 - - - - 0 mhos 81 - None None - -
03/19/2019 00:51 Ice Watch 16.7F - - - 5 - - - - 0 mhos 75 - None None - -
03/19/2019 00:41 Ice Watch 15.6F - - - 5 - - - - 0 mhos 80 - None None - -
03/19/2019 00:41 Ice Watch 15.1F - - - 5 - - - - 0 mhos 83 - None None - -
Date/Time
(MDT)
Sf
Temp Chem Water Layer Surface Precipitation
Sfc Pvt Sub Frz Factor Pct Dpth DpthThk IcePct Cond Salin FI Type Intens Accum Rate
03/19/2019 00:31 Ice Watch 14.5F - - - 5 - - - - 0 mhos 84 - None None - -
03/19/2019 00:26 Frost 7.3F - - - - - - - - 0 mhos 149 - None None - -
03/19/2019 00:21 Ice Watch 16.3F - - - 5 - - - - 0 mhos 68 - None None - -
03/19/2019 00:11 Ice Watch 16.5F - - - 5 - - - - 0 mhos 63 - None None - -
03/19/2019 00:11 Ice Watch 16.5F - - - 5 - - - - 0 mhos 63 - None None - -
03/19/2019 00:01 Ice Watch 19.2F - - - 5 - - - - 0 mhos 49 - None None - -
03/18/2019 23:56 Ice Watch 11.7F - - - 5 - - - - 0 mhos 89 - None None - -
03/18/2019 23:50 Ice Watch 13.1F - - - 5 - - - - 0 mhos 77 - None None - -
03/18/2019 23:41 Ice Watch 16.5F - - - 5 - - - - 0 mhos 56 - None None - -
03/18/2019 23:40 Ice Watch 15.1F - - - 5 - - - - 0 mhos 63 - None None - -
03/18/2019 23:30 Ice Watch 16.0F - - - 5 - - - - 0 mhos 56 - None None - -
03/18/2019 23:27 Ice Watch 16.0F - - - 5 - - - - 0 mhos 55 - None None - -
03/18/2019 23:20 Ice Watch 17.4F - - - 5 - - - - 0 mhos 48 - None None - -
03/18/2019 23:11 Ice Watch 17.1F - - - 5 - - - - 0 mhos 47 - None None - -
03/18/2019 23:10 Ice Watch 18.9F - - - 5 - - - - 0 mhos 40 - None None - -
Date/Time
(MDT)
Sf
Temp Chem Water Layer Surface Precipitation
Sfc Pvt Sub Frz Factor Pct Dpth DpthThk IcePct Cond Salin FI Type Intens Accum Rate
03/18/2019 23:00 Ice Watch 14.7F - - - 5 - - - - 0 mhos 54 - None None - -
03/18/2019 22:56 Ice Watch 19.4F - - - 5 - - - - 0 mhos 36 - None None - -
03/18/2019 22:50 Ice Watch 19.0F - - - 5 - - - - 0 mhos 36 - None None - -
03/18/2019 22:41 Ice Watch 19.8F - - - 5 - - - - 0 mhos 29 - None None - -
03/18/2019 22:40 Ice Watch 20.5F - - - 5 - - - - 0 mhos 28 - None None - -
03/18/2019 22:30 Ice Watch 19.0F - - - 5 - - - - 0 mhos 30 - None None - -
03/18/2019 22:26 Ice Watch 17.1F - - - 5 - - - - 0 mhos 34 - None None - -
03/18/2019 22:20 Ice Watch 18.5F - - - 5 - - - - 0 mhos 29 - None None - -
03/18/2019 22:11 Ice Watch 20.3F - - - 5 - - - - 0 mhos 24 - None None - -
03/18/2019 22:10 Ice Watch 16.9F - - - 5 - - - - 0 mhos 31 - None None - -
03/18/2019 22:00 Ice Watch 20.7F - - - 5 - - - - 0 mhos 21 - None None - -
03/18/2019 21:56 Ice Watch 21.0F - - - 5 - - - - 0 mhos 20 - None None - -
03/18/2019 21:50 Ice Watch 18.9F - - - 5 - - - - 0 mhos 22 - None None - -
Change End Date:

Copyright © 1998-2015 Vaisala, Inc.
All Rights Reserved
Send comments about the data to:
SCAN Web ® is a registered trademark of Vaisala, Inc.
SCAN Web Version 6.0